Time;durP1;ratioP1;P1;durP2;ratioP2;P2;SDS_P1;SDS_P2;PMS_P1;PMS_P2;Temp;Humidity;BMP_temperature;BMP_pressure;BME280_temperature;BME280_humidity;BME280_pressure;Samples;Min_cycle;Max_cycle;Signal;HPM_P1;HPM_P2
2021/07/26 00:01:40;0.00;0.00;0.62;0.00;0.00;0.62;;;;;23.60;74.70;;;;;;2263308;61;6223;-66
2021/07/26 00:04:06;18280.00;0.06;32.29;0.00;0.00;0.62;;;;;23.60;74.70;;;;;;2262779;61;6207;-68
2021/07/26 00:06:31;0.00;0.00;0.62;0.00;0.00;0.62;;;;;23.60;74.60;;;;;;2259261;61;5883;-66
2021/07/26 00:08:57;400875.00;1.34;691.31;139824.00;0.47;242.27;;;;;23.60;74.60;;;;;;2263234;61;6514;-66
2021/07/26 00:11:23;0.00;0.00;0.62;0.00;0.00;0.62;;;;;23.60;74.60;;;;;;2258520;61;6085;-66
2021/07/26 00:13:48;0.00;0.00;0.62;0.00;0.00;0.62;;;;;23.60;74.60;;;;;;2259594;61;6925;-66
2021/07/26 00:16:14;0.00;0.00;0.62;0.00;0.00;0.62;;;;;23.60;74.40;;;;;;2255752;61;6236;-67
2021/07/26 00:18:39;17520.00;0.06;30.98;0.00;0.00;0.62;;;;;23.60;74.60;;;;;;2262704;61;6311;-67
2021/07/26 00:21:05;0.00;0.00;0.62;0.00;0.00;0.62;;;;;23.50;74.70;;;;;;2260846;61;6108;-66
2021/07/26 00:23:31;0.00;0.00;0.62;0.00;0.00;0.62;;;;;23.50;74.60;;;;;;2262635;61;6230;-66
2021/07/26 00:25:56;0.00;0.00;0.62;0.00;0.00;0.62;;;;;23.50;74.60;;;;;;2258782;61;6275;-66
2021/07/26 00:28:22;0.00;0.00;0.62;0.00;0.00;0.62;;;;;23.50;74.60;;;;;;2259882;61;6185;-66
2021/07/26 00:30:47;31248.00;0.10;54.74;0.00;0.00;0.62;;;;;23.50;74.60;;;;;;2263730;61;6169;-67
2021/07/26 00:34:18;0.00;0.00;0.62;0.00;0.00;0.62;;;;;23.50;74.60;;;;;;2262733;61;6820;-66
2021/07/26 00:36:50;0.00;0.00;0.62;0.00;0.00;0.62;;;;;23.50;74.60;;;;;;2261717;61;5923;-66
2021/07/26 00:39:18;1181.00;0.00;2.67;0.00;0.00;0.62;;;;;23.50;74.40;;;;;;2260737;61;5822;-66
2021/07/26 00:41:44;0.00;0.00;0.62;0.00;0.00;0.62;;;;;23.50;74.30;;;;;;2259102;61;4055;-67
2021/07/26 00:44:10;0.00;0.00;0.62;0.00;0.00;0.62;;;;;23.50;74.30;;;;;;2259013;61;6162;-67
2021/07/26 00:46:36;294387.00;0.98;508.27;215365.00;0.72;372.37;;;;;23.50;74.30;;;;;;2258675;61;6188;-66
2021/07/26 00:49:04;16591.00;0.06;29.37;0.00;0.00;0.62;;;;;23.50;74.30;;;;;;2262660;61;6232;-66
2021/07/26 00:51:29;14788.00;0.05;26.24;0.00;0.00;0.62;;;;;23.50;74.30;;;;;;2258501;61;6329;-66
2021/07/26 00:53:55;0.00;0.00;0.62;0.00;0.00;0.62;;;;;23.50;74.30;;;;;;2258750;61;4249;-67
2021/07/26 00:56:20;0.00;0.00;0.62;0.00;0.00;0.62;;;;;23.50;74.30;;;;;;2261032;61;4132;-67
2021/07/26 00:58:46;125730.00;0.42;217.97;0.00;0.00;0.62;;;;;23.50;74.30;;;;;;2258970;61;4142;-67
2021/07/26 01:01:14;18813.00;0.06;33.21;0.00;0.00;0.62;;;;;23.50;74.30;;;;;;2258811;61;4025;-67
2021/07/26 01:03:43;0.00;0.00;0.62;0.00;0.00;0.62;;;;;23.50;74.20;;;;;;2262009;61;6031;-66
2021/07/26 01:06:09;0.00;0.00;0.62;0.00;0.00;0.62;;;;;23.50;74.20;;;;;;2259157;61;9516;-66
2021/07/26 01:08:35;0.00;0.00;0.62;0.00;0.00;0.62;;;;;23.50;74.20;;;;;;2262495;61;9462;-66
2021/07/26 01:11:01;0.00;0.00;0.62;0.00;0.00;0.62;;;;;23.50;74.20;;;;;;2256952;61;9674;-67
2021/07/26 01:13:28;0.00;0.00;0.62;0.00;0.00;0.62;;;;;23.50;74.20;;;;;;2256023;61;6662;-66
2021/07/26 01:15:53;0.00;0.00;0.62;0.00;0.00;0.62;;;;;23.50;74.20;;;;;;2262591;61;6136;-68
2021/07/26 01:18:25;0.00;0.00;0.62;0.00;0.00;0.62;;;;;23.50;74.20;;;;;;2262611;61;4275;-67
2021/07/26 01:20:55;0.00;0.00;0.62;0.00;0.00;0.62;;;;;23.50;74.00;;;;;;2263075;61;6080;-66
2021/07/26 01:23:21;11197.00;0.04;20.02;0.00;0.00;0.62;;;;;23.50;74.00;;;;;;2263481;61;9395;-66
2021/07/26 01:25:46;0.00;0.00;0.62;0.00;0.00;0.62;;;;;23.50;74.00;;;;;;2263736;61;6155;-67
2021/07/26 01:28:14;0.00;0.00;0.62;0.00;0.00;0.62;;;;;23.50;74.00;;;;;;2259963;61;6273;-66
2021/07/26 01:30:40;35627.00;0.12;62.32;0.00;0.00;0.62;;;;;23.50;74.00;;;;;;2256879;61;6175;-67
2021/07/26 01:33:09;0.00;0.00;0.62;0.00;0.00;0.62;;;;;23.50;74.00;;;;;;2263968;61;6318;-66
2021/07/26 01:35:35;0.00;0.00;0.62;0.00;0.00;0.62;;;;;23.50;74.00;;;;;;2259674;61;6153;-68
2021/07/26 01:38:00;0.00;0.00;0.62;0.00;0.00;0.62;;;;;23.50;74.00;;;;;;2261753;61;6017;-66
2021/07/26 01:40:26;26405.00;0.09;46.36;0.00;0.00;0.62;;;;;23.50;74.00;;;;;;2263316;61;6289;-67
2021/07/26 01:43:00;0.00;0.00;0.62;0.00;0.00;0.62;;;;;23.50;73.90;;;;;;2263104;61;6135;-68
2021/07/26 01:45:26;16878.00;0.06;29.86;0.00;0.00;0.62;;;;;23.50;74.00;;;;;;2263444;61;5910;-68
2021/07/26 01:47:52;55612.00;0.19;96.89;0.00;0.00;0.62;;;;;23.50;73.90;;;;;;2263097;61;6089;-66
2021/07/26 01:50:18;0.00;0.00;0.62;0.00;0.00;0.62;;;;;23.50;73.90;;;;;;2259043;61;6184;-66
2021/07/26 01:52:44;203206.00;0.68;351.44;47222.00;0.16;82.38;;;;;23.50;73.90;;;;;;2259017;61;6180;-67
2021/07/26 01:55:10;0.00;0.00;0.62;0.00;0.00;0.62;;;;;23.50;73.90;;;;;;2257118;61;5929;-66
2021/07/26 01:57:36;165716.00;0.55;286.89;95965.00;0.32;166.61;;;;;23.50;73.90;;;;;;2263343;61;6269;-66
2021/07/26 02:00:02;14570.00;0.05;25.87;0.00;0.00;0.62;;;;;23.50;73.90;;;;;;2259022;61;5803;-69
2021/07/26 02:02:28;43076.00;0.14;75.21;0.00;0.00;0.62;;;;;23.50;73.90;;;;;;2264302;61;6217;-68
2021/07/26 02:04:55;30675.00;0.10;53.75;0.00;0.00;0.62;;;;;23.50;73.90;;;;;;2261710;61;10028;-69
2021/07/26 02:07:21;4061.00;0.01;7.66;0.00;0.00;0.62;;;;;23.50;73.90;;;;;;2258155;61;9430;-68
2021/07/26 02:09:46;0.00;0.00;0.62;0.00;0.00;0.62;;;;;23.50;73.90;;;;;;2263719;61;9156;-74
2021/07/26 02:12:12;53541.00;0.18;93.31;0.00;0.00;0.62;;;;;23.50;73.90;;;;;;2262869;61;6383;-68
2021/07/26 02:14:37;0.00;0.00;0.62;0.00;0.00;0.62;;;;;23.50;73.90;;;;;;2262678;61;9629;-68
2021/07/26 02:17:03;0.00;0.00;0.62;0.00;0.00;0.62;;;;;23.50;73.90;;;;;;2263789;61;6005;-68
2021/07/26 02:19:29;0.00;0.00;0.62;0.00;0.00;0.62;;;;;23.50;73.80;;;;;;2258491;61;3935;-69
2021/07/26 02:21:54;0.00;0.00;0.62;0.00;0.00;0.62;;;;;23.50;73.90;;;;;;2262199;61;9000;-69
2021/07/26 02:24:20;46940.00;0.16;81.89;0.00;0.00;0.62;;;;;23.50;73.80;;;;;;2263797;61;5849;-68
2021/07/26 02:26:45;245876.00;0.82;424.86;0.00;0.00;0.62;;;;;23.50;73.80;;;;;;2264851;61;4480;-68
2021/07/26 02:29:11;286544.00;0.96;494.79;198285.00;0.66;342.97;;;;;23.50;73.80;;;;;;2264914;61;3714;-67
2021/07/26 02:31:37;117868.00;0.39;204.40;0.00;0.00;0.62;;;;;23.50;73.80;;;;;;2264298;61;4449;-66
2021/07/26 02:34:02;0.00;0.00;0.62;0.00;0.00;0.62;;;;;23.50;73.80;;;;;;2264185;61;3747;-67
2021/07/26 02:36:28;139685.00;0.47;242.03;0.00;0.00;0.62;;;;;23.40;73.80;;;;;;2264931;61;2137;-66
2021/07/26 02:38:54;297852.00;0.99;514.23;198429.00;0.66;343.22;;;;;23.40;73.80;;;;;;2263936;61;6239;-66
2021/07/26 02:41:19;0.00;0.00;0.62;0.00;0.00;0.62;;;;;23.40;73.80;;;;;;2265229;61;4280;-67
2021/07/26 02:43:45;72283.00;0.24;125.71;0.00;0.00;0.62;;;;;23.40;73.80;;;;;;2264263;61;3775;-67
2021/07/26 02:46:11;136394.00;0.45;236.35;23206.00;0.08;40.82;;;;;23.40;73.80;;;;;;2264176;61;2785;-67
2021/07/26 02:48:37;0.00;0.00;0.62;0.00;0.00;0.62;;;;;23.50;73.70;;;;;;2257478;61;2344;-67
2021/07/26 02:51:03;16636.00;0.06;29.44;0.00;0.00;0.62;;;;;23.40;73.50;;;;;;2255875;61;4817;-68
2021/07/26 02:53:28;0.00;0.00;0.62;0.00;0.00;0.62;;;;;23.40;73.70;;;;;;2263501;61;2526;-68
2021/07/26 02:55:54;240763.00;0.80;416.06;82314.00;0.27;143.03;;;;;23.40;73.70;;;;;;2259224;61;9282;-69
2021/07/26 02:58:23;288082.00;0.96;497.43;139576.00;0.47;241.84;;;;;23.40;73.70;;;;;;2262971;61;6627;-68
2021/07/26 03:00:48;19720.00;0.07;34.79;0.00;0.00;0.62;;;;;23.40;73.70;;;;;;2262918;61;6326;-69
2021/07/26 03:03:14;183563.00;0.61;317.63;11194.00;0.04;20.02;;;;;23.40;73.50;;;;;;2261963;61;6218;-70
2021/07/26 03:05:40;48536.00;0.16;84.65;0.00;0.00;0.62;;;;;23.40;73.50;;;;;;2257646;61;6346;-68
2021/07/26 03:08:06;0.00;0.00;0.62;0.00;0.00;0.62;;;;;23.40;73.50;;;;;;2262874;61;5904;-70
2021/07/26 03:10:31;49282.00;0.16;85.94;0.00;0.00;0.62;;;;;23.40;73.50;;;;;;2263238;61;6199;-68
2021/07/26 03:12:57;236319.00;0.79;408.42;144486.00;0.48;250.30;;;;;23.40;73.50;;;;;;2263069;61;6148;-68
2021/07/26 03:15:23;0.00;0.00;0.62;0.00;0.00;0.62;;;;;23.40;73.50;;;;;;2263433;61;6509;-68
2021/07/26 03:17:49;0.00;0.00;0.62;0.00;0.00;0.62;;;;;23.40;73.70;;;;;;2262865;61;6079;-68
2021/07/26 03:20:15;9793.00;0.03;17.59;0.00;0.00;0.62;;;;;23.40;73.50;;;;;;2262865;61;5978;-68
2021/07/26 03:23:02;0.00;0.00;0.62;0.00;0.00;0.62;;;;;23.40;73.50;;;;;;2259609;61;6136;-68
2021/07/26 03:25:28;147587.00;0.49;255.65;0.00;0.00;0.62;;;;;23.40;73.40;;;;;;2263019;61;6395;-68
2021/07/26 03:27:55;0.00;0.00;0.62;0.00;0.00;0.62;;;;;23.40;73.40;;;;;;2263507;61;6375;-68
2021/07/26 03:30:21;43602.00;0.15;76.12;0.00;0.00;0.62;;;;;23.40;73.40;;;;;;2258393;61;6334;-69
2021/07/26 03:32:47;5911.00;0.02;10.86;0.00;0.00;0.62;;;;;23.40;73.50;;;;;;2258167;61;6108;-68
2021/07/26 03:35:13;0.00;0.00;0.62;0.00;0.00;0.62;;;;;23.40;73.50;;;;;;2263054;61;4126;-69
2021/07/26 03:37:38;0.00;0.00;0.62;0.00;0.00;0.62;;;;;23.40;73.50;;;;;;2263021;61;4078;-68
2021/07/26 03:40:05;275250.00;0.92;475.37;0.00;0.00;0.62;;;;;23.40;73.50;;;;;;2263013;61;4012;-68
2021/07/26 03:42:35;237393.00;0.79;410.27;134707.00;0.45;233.45;;;;;23.40;73.50;;;;;;2258922;61;6245;-68
2021/07/26 03:45:01;41206.00;0.14;71.97;0.00;0.00;0.62;;;;;23.40;73.50;;;;;;2263255;61;6261;-68
2021/07/26 03:47:27;58104.00;0.19;101.20;0.00;0.00;0.62;;;;;23.40;73.70;;;;;;2263095;61;6235;-72
2021/07/26 03:49:52;0.00;0.00;0.62;0.00;0.00;0.62;;;;;23.40;73.70;;;;;;2262601;61;5971;-68
2021/07/26 03:52:19;0.00;0.00;0.62;0.00;0.00;0.62;;;;;23.50;73.70;;;;;;2263524;61;6300;-66
2021/07/26 03:54:44;0.00;0.00;0.62;0.00;0.00;0.62;;;;;23.50;73.50;;;;;;2259044;61;6074;-67
2021/07/26 03:57:10;668791.00;2.23;1153.16;207270.00;0.69;358.44;;;;;23.50;73.50;;;;;;2263424;61;6140;-67
2021/07/26 03:59:35;100240.00;0.33;173.99;0.00;0.00;0.62;;;;;23.40;73.50;;;;;;2263089;61;6227;-67
2021/07/26 04:02:02;397487.00;1.32;685.49;216429.00;0.72;374.20;;;;;23.40;73.50;;;;;;2262726;61;6080;-67
2021/07/26 04:04:28;351422.00;1.17;606.31;19215.00;0.06;33.91;;;;;23.40;73.50;;;;;;2263494;61;6281;-69
2021/07/26 04:07:00;107616.00;0.36;186.72;0.00;0.00;0.62;;;;;23.40;73.40;;;;;;2258985;61;6204;-68
2021/07/26 04:09:33;0.00;0.00;0.62;0.00;0.00;0.62;;;;;23.40;73.40;;;;;;2262963;61;6143;-68
2021/07/26 04:12:05;90282.00;0.30;156.79;0.00;0.00;0.62;;;;;23.40;73.40;;;;;;2257436;61;6192;-68
2021/07/26 04:14:35;56802.00;0.19;98.95;0.00;0.00;0.62;;;;;23.40;73.30;;;;;;2262555;61;6844;-67
2021/07/26 04:17:00;0.00;0.00;0.62;0.00;0.00;0.62;;;;;23.40;73.30;;;;;;2262819;61;6122;-69
2021/07/26 04:19:26;0.00;0.00;0.62;0.00;0.00;0.62;;;;;23.30;73.30;;;;;;2263270;61;6336;-67
2021/07/26 04:21:56;291638.00;0.97;503.55;145961.00;0.49;252.85;;;;;23.30;73.30;;;;;;2264763;61;6039;-66
2021/07/26 04:24:22;0.00;0.00;0.62;0.00;0.00;0.62;;;;;23.30;73.40;;;;;;2259231;61;6010;-67
2021/07/26 04:26:48;126191.00;0.42;218.76;0.00;0.00;0.62;;;;;23.20;73.50;;;;;;2260841;61;5933;-69
2021/07/26 04:29:13;0.00;0.00;0.62;0.00;0.00;0.62;;;;;23.20;73.50;;;;;;2262703;61;6415;-67
2021/07/26 04:31:39;242791.00;0.81;419.55;163782.00;0.55;283.56;;;;;23.20;73.90;;;;;;2263321;61;6285;-68
2021/07/26 04:34:05;51380.00;0.17;89.57;0.00;0.00;0.62;;;;;23.10;74.30;;;;;;2264091;61;2260;-65
2021/07/26 04:36:30;673928.00;2.25;1162.06;419359.00;1.40;723.09;;;;;23.20;74.40;;;;;;2257478;61;3653;-63
2021/07/26 04:38:56;279923.00;0.93;483.41;49660.00;0.17;86.60;;;;;23.20;73.70;;;;;;2263970;61;4478;-67
2021/07/26 04:41:21;0.00;0.00;0.62;0.00;0.00;0.62;;;;;22.90;74.20;;;;;;2263717;61;2821;-62
2021/07/26 04:43:47;254710.00;0.85;440.05;34306.00;0.11;60.04;;;;;22.70;75.20;;;;;;2262676;61;3841;-63
2021/07/26 04:46:13;91263.00;0.30;158.49;0.00;0.00;0.62;;;;;22.50;75.70;;;;;;2262356;61;2252;-63
2021/07/26 04:48:38;178899.00;0.60;309.59;0.00;0.00;0.62;;;;;22.40;76.20;;;;;;2261488;61;6016;-63
2021/07/26 04:51:04;185419.00;0.62;320.82;89704.00;0.30;155.80;;;;;22.30;76.60;;;;;;2264166;61;4562;-63
2021/07/26 04:53:33;121916.00;0.41;211.39;54319.00;0.18;94.65;;;;;22.30;76.80;;;;;;2263781;61;3997;-63
2021/07/26 04:55:59;3243.00;0.01;6.24;0.00;0.00;0.62;;;;;22.20;77.00;;;;;;2264306;61;4242;-64
2021/07/26 04:58:25;73660.00;0.25;128.08;0.00;0.00;0.62;;;;;22.20;77.10;;;;;;2263582;61;3955;-64
2021/07/26 05:00:50;0.00;0.00;0.62;0.00;0.00;0.62;;;;;22.10;77.10;;;;;;2263487;61;2859;-64
2021/07/26 05:03:16;87333.00;0.29;151.70;0.00;0.00;0.62;;;;;22.10;77.40;;;;;;2264244;61;2077;-63
2021/07/26 05:05:42;0.00;0.00;0.62;0.00;0.00;0.62;;;;;22.10;77.40;;;;;;2263231;61;3651;-63
2021/07/26 05:08:07;62525.00;0.21;108.84;0.00;0.00;0.62;;;;;22.10;77.70;;;;;;2262143;61;3862;-62
2021/07/26 05:10:33;0.00;0.00;0.62;0.00;0.00;0.62;;;;;22.00;77.90;;;;;;2263718;61;3927;-63
2021/07/26 05:12:59;148994.00;0.50;258.07;0.00;0.00;0.62;;;;;22.00;77.90;;;;;;2258053;61;3428;-64
2021/07/26 05:15:24;142871.00;0.48;247.52;0.00;0.00;0.62;;;;;21.90;78.30;;;;;;2263915;61;3539;-64
2021/07/26 05:17:50;0.00;0.00;0.62;0.00;0.00;0.62;;;;;22.20;77.40;;;;;;2263422;61;3551;-63
2021/07/26 05:20:15;75417.00;0.25;131.12;0.00;0.00;0.62;;;;;22.50;76.20;;;;;;2260632;61;4097;-63
2021/07/26 05:22:41;156281.00;0.52;270.63;0.00;0.00;0.62;;;;;22.60;75.70;;;;;;2258900;61;4196;-63
2021/07/26 05:25:07;110451.00;0.37;191.61;0.00;0.00;0.62;;;;;22.70;75.60;;;;;;2258879;61;3851;-63
2021/07/26 05:27:33;61006.00;0.20;106.22;0.00;0.00;0.62;;;;;22.70;75.60;;;;;;2263830;61;3319;-63
2021/07/26 05:29:59;0.00;0.00;0.62;0.00;0.00;0.62;;;;;22.70;75.30;;;;;;2262934;61;3934;-64
2021/07/26 05:32:24;0.00;0.00;0.62;0.00;0.00;0.62;;;;;22.70;75.10;;;;;;2263962;61;4304;-64
2021/07/26 05:34:50;0.00;0.00;0.62;0.00;0.00;0.62;;;;;22.70;75.10;;;;;;2258882;61;2447;-63
2021/07/26 05:37:19;58199.00;0.19;101.36;0.00;0.00;0.62;;;;;22.80;75.10;;;;;;2262460;61;3348;-64
2021/07/26 05:39:44;442453.00;1.47;762.80;153765.00;0.51;266.30;;;;;22.80;75.20;;;;;;2265321;60;2696;-63
2021/07/26 05:42:11;314176.00;1.05;542.29;0.00;0.00;0.62;;;;;22.80;75.60;;;;;;2263963;61;4009;-64
2021/07/26 05:44:40;45590.00;0.15;79.56;0.00;0.00;0.62;;;;;22.80;75.70;;;;;;2259294;61;3416;-65
2021/07/26 05:47:07;86325.00;0.29;149.96;0.00;0.00;0.62;;;;;22.70;76.10;;;;;;2262531;61;3752;-64
2021/07/26 05:49:32;105511.00;0.35;183.08;0.00;0.00;0.62;;;;;22.70;76.00;;;;;;2260081;61;3676;-64
2021/07/26 05:51:58;0.00;0.00;0.62;0.00;0.00;0.62;;;;;22.70;76.20;;;;;;2258444;61;3896;-63
2021/07/26 05:54:24;0.00;0.00;0.62;0.00;0.00;0.62;;;;;22.70;76.40;;;;;;2258830;61;2798;-64
2021/07/26 05:56:50;294004.00;0.98;507.61;103170.00;0.34;179.04;;;;;22.70;76.60;;;;;;2262951;61;2989;-64
2021/07/26 05:59:16;302268.00;1.01;521.82;106677.00;0.36;185.10;;;;;22.70;76.80;;;;;;2260472;61;3540;-64
2021/07/26 06:01:48;354138.00;1.18;610.97;253094.00;0.84;437.27;;;;;22.60;76.60;;;;;;2260264;61;2882;-67
2021/07/26 06:04:17;129239.00;0.43;224.02;0.00;0.00;0.62;;;;;22.70;76.50;;;;;;2263319;61;3639;-66
2021/07/26 06:06:44;58093.00;0.19;101.18;0.00;0.00;0.62;;;;;22.70;77.00;;;;;;2261658;61;4331;-67
2021/07/26 06:09:10;122860.00;0.41;213.02;33503.00;0.11;58.65;;;;;22.70;76.60;;;;;;2263244;61;2829;-69
2021/07/26 06:11:37;52714.00;0.18;91.88;0.00;0.00;0.62;;;;;22.70;77.10;;;;;;2264462;61;3891;-67
2021/07/26 06:14:02;168392.00;0.56;291.50;0.00;0.00;0.62;;;;;22.80;76.90;;;;;;2264286;61;3792;-68
2021/07/26 06:16:28;9829.00;0.03;17.65;0.00;0.00;0.62;;;;;22.80;76.60;;;;;;2256845;61;4198;-69
2021/07/26 06:18:53;25679.00;0.09;45.10;0.00;0.00;0.62;;;;;22.80;76.60;;;;;;2263039;61;3500;-66
2021/07/26 06:21:20;143877.00;0.48;249.25;0.00;0.00;0.62;;;;;22.80;76.50;;;;;;2262255;61;6424;-67
2021/07/26 06:23:45;97045.00;0.32;168.47;0.00;0.00;0.62;;;;;22.80;76.20;;;;;;2262570;61;4282;-69
2021/07/26 06:26:11;0.00;0.00;0.62;0.00;0.00;0.62;;;;;22.80;76.10;;;;;;2258176;61;6366;-67
2021/07/26 06:28:37;160230.00;0.53;277.44;0.00;0.00;0.62;;;;;22.70;76.40;;;;;;2258972;61;4077;-66
2021/07/26 06:31:03;28059.00;0.09;49.22;0.00;0.00;0.62;;;;;22.70;76.60;;;;;;2263111;61;5821;-66
2021/07/26 06:33:30;30701.00;0.10;53.80;0.00;0.00;0.62;;;;;22.70;77.00;;;;;;2262405;61;4105;-65
2021/07/26 06:35:56;206749.00;0.69;357.54;0.00;0.00;0.62;;;;;22.60;77.10;;;;;;2259322;61;4395;-66
2021/07/26 06:38:21;65089.00;0.22;113.27;0.00;0.00;0.62;;;;;22.50;77.50;;;;;;2259561;61;4225;-65
2021/07/26 06:40:47;88104.00;0.29;153.03;0.00;0.00;0.62;;;;;22.50;77.50;;;;;;2258644;61;6278;-65
2021/07/26 06:43:13;258773.00;0.86;447.04;0.00;0.00;0.62;;;;;22.40;77.50;;;;;;2263037;61;5804;-65
2021/07/26 06:45:38;28516.00;0.10;50.01;0.00;0.00;0.62;;;;;22.50;77.50;;;;;;2261801;61;6125;-64
2021/07/26 06:48:04;103344.00;0.34;179.34;0.00;0.00;0.62;;;;;22.60;77.10;;;;;;2262860;61;6721;-65
2021/07/26 06:50:30;0.00;0.00;0.62;0.00;0.00;0.62;;;;;22.60;77.00;;;;;;2259371;61;4285;-65
2021/07/26 06:52:55;96420.00;0.32;167.39;0.00;0.00;0.62;;;;;22.70;77.30;;;;;;2263540;61;3716;-65
2021/07/26 06:55:21;273204.00;0.91;471.85;0.00;0.00;0.62;;;;;23.00;76.20;;;;;;2262884;61;6274;-66
2021/07/26 06:57:46;173139.00;0.58;299.67;0.00;0.00;0.62;;;;;23.10;75.90;;;;;;2263101;61;3964;-66
2021/07/26 07:00:12;178702.00;0.60;309.25;0.00;0.00;0.62;;;;;23.20;75.50;;;;;;2263246;61;3785;-66
2021/07/26 07:02:38;0.00;0.00;0.62;0.00;0.00;0.62;;;;;23.30;75.20;;;;;;2263125;61;3876;-68
2021/07/26 07:05:05;0.00;0.00;0.62;0.00;0.00;0.62;;;;;23.30;75.30;;;;;;2259004;61;2265;-67
2021/07/26 07:07:30;0.00;0.00;0.62;0.00;0.00;0.62;;;;;23.40;75.60;;;;;;2259983;61;6058;-68
2021/07/26 07:09:56;0.00;0.00;0.62;0.00;0.00;0.62;;;;;23.40;75.50;;;;;;2262857;61;4012;-70
2021/07/26 07:12:22;176535.00;0.59;305.52;0.00;0.00;0.62;;;;;23.40;75.20;;;;;;2260117;61;4062;-66
2021/07/26 07:14:47;118950.00;0.40;206.27;0.00;0.00;0.62;;;;;23.40;74.90;;;;;;2257173;61;2811;-67
2021/07/26 07:17:13;155843.00;0.52;269.88;0.00;0.00;0.62;;;;;23.50;74.90;;;;;;2263650;61;4037;-66
2021/07/26 07:19:43;176977.00;0.59;306.28;0.00;0.00;0.62;;;;;23.50;74.80;;;;;;2263584;61;1982;-66
2021/07/26 07:22:11;87451.00;0.29;151.91;0.00;0.00;0.62;;;;;23.50;74.70;;;;;;2263267;61;3806;-68
2021/07/26 07:24:37;241470.00;0.80;417.28;0.00;0.00;0.62;;;;;23.60;74.40;;;;;;2259635;61;2591;-71
2021/07/26 07:27:02;23874.00;0.08;41.98;0.00;0.00;0.62;;;;;23.60;74.00;;;;;;2264185;61;1893;-65
2021/07/26 07:29:28;430978.00;1.44;743.07;58998.00;0.20;102.74;;;;;23.60;74.30;;;;;;2264060;61;3708;-65
2021/07/26 07:31:54;29673.00;0.10;52.02;0.00;0.00;0.62;;;;;23.60;73.70;;;;;;2259147;61;2069;-66
2021/07/26 07:34:19;153023.00;0.51;265.02;0.00;0.00;0.62;;;;;23.60;73.50;;;;;;2263457;61;4039;-67
2021/07/26 07:36:47;75712.00;0.25;131.63;0.00;0.00;0.62;;;;;23.60;73.70;;;;;;2264980;61;2785;-68
2021/07/26 07:39:13;164410.00;0.55;284.64;0.00;0.00;0.62;;;;;23.60;73.40;;;;;;2262854;61;3370;-66
2021/07/26 07:41:38;134193.00;0.45;232.56;0.00;0.00;0.62;;;;;23.60;73.50;;;;;;2262200;61;3979;-67
2021/07/26 07:44:05;123541.00;0.41;214.19;0.00;0.00;0.62;;;;;23.60;73.30;;;;;;1579760;61;10001392;-68
2021/07/26 07:46:31;116856528.00;389.52;64637140.00;0.00;0.00;0.62;;;;;23.60;73.70;;;;;;808680;61;10001982;-66
2021/07/26 07:48:56;259296.00;0.86;447.94;0.00;0.00;0.62;;;;;23.60;73.10;;;;;;2263560;61;2497;-68
2021/07/26 07:51:22;210602.00;0.70;364.17;0.00;0.00;0.62;;;;;23.60;73.40;;;;;;2263741;61;3970;-66
2021/07/26 07:53:49;199486.00;0.66;345.04;0.00;0.00;0.62;;;;;23.70;73.30;;;;;;2264222;61;4294;-66
2021/07/26 07:56:15;83477.00;0.28;145.04;0.00;0.00;0.62;;;;;23.70;73.40;;;;;;2259523;61;3736;-68
2021/07/26 07:58:41;115575.00;0.39;200.45;0.00;0.00;0.62;;;;;23.80;73.30;;;;;;2264197;61;4093;-67
2021/07/26 08:01:07;184958.00;0.62;320.03;0.00;0.00;0.62;;;;;23.90;72.90;;;;;;2260389;61;2801;-67
2021/07/26 08:03:32;217704.00;0.73;376.39;0.00;0.00;0.62;;;;;23.90;73.40;;;;;;2260013;61;4117;-66
2021/07/26 08:06:01;105561.00;0.35;183.17;0.00;0.00;0.62;;;;;23.90;72.60;;;;;;2262123;61;3635;-67
2021/07/26 08:08:26;222492.00;0.74;384.63;0.00;0.00;0.62;;;;;24.00;73.00;;;;;;2264827;61;3652;-67
2021/07/26 08:10:52;220667.00;0.74;381.49;0.00;0.00;0.62;;;;;24.00;72.60;;;;;;2264746;61;1929;-68
2021/07/26 08:13:22;45491.00;0.15;79.39;0.00;0.00;0.62;;;;;24.10;72.50;;;;;;2265036;61;3960;-68
2021/07/26 08:15:50;61530.00;0.21;107.12;0.00;0.00;0.62;;;;;24.20;72.10;;;;;;2260892;61;2999;-69
2021/07/26 08:18:16;229233.00;0.76;396.23;0.00;0.00;0.62;;;;;24.30;72.00;;;;;;2261125;61;4187;-69
2021/07/26 08:20:42;72575.00;0.24;126.21;0.00;0.00;0.62;;;;;24.30;72.20;;;;;;2260555;61;4060;-67
2021/07/26 08:23:07;218954.00;0.73;378.54;0.00;0.00;0.62;;;;;24.30;72.00;;;;;;2264075;61;3982;-67
2021/07/26 08:25:33;85872.00;0.29;149.18;0.00;0.00;0.62;;;;;24.40;72.20;;;;;;2264145;61;4020;-66
2021/07/26 08:27:58;185143.00;0.62;320.35;0.00;0.00;0.62;;;;;24.40;72.10;;;;;;2264624;61;3299;-73
2021/07/26 08:30:28;130202.00;0.43;225.68;0.00;0.00;0.62;;;;;24.40;71.80;;;;;;2263837;61;2305;-68
2021/07/26 08:32:54;59412.00;0.20;103.46;0.00;0.00;0.62;;;;;24.40;72.10;;;;;;2261331;61;2803;-68
2021/07/26 08:35:20;61087.00;0.20;106.36;0.00;0.00;0.62;;;;;24.40;72.20;;;;;;2265648;61;4023;-69
2021/07/26 08:37:45;103078.00;0.34;178.88;0.00;0.00;0.62;;;;;24.40;72.40;;;;;;2264422;61;2086;-68
2021/07/26 08:40:11;59464.00;0.20;103.55;0.00;0.00;0.62;;;;;24.40;72.20;;;;;;2264513;61;4016;-69
2021/07/26 08:42:37;44028.00;0.15;76.86;0.00;0.00;0.62;;;;;24.50;72.00;;;;;;2264552;61;4478;-70
2021/07/26 08:45:03;0.00;0.00;0.62;0.00;0.00;0.62;;;;;24.50;71.80;;;;;;2260323;61;1630;-70
2021/07/26 08:47:29;85509.00;0.29;148.55;0.00;0.00;0.62;;;;;24.50;72.10;;;;;;2257756;61;3958;-70
2021/07/26 08:49:59;51955.00;0.17;90.57;0.00;0.00;0.62;;;;;24.50;71.80;;;;;;2258576;61;3993;-70
2021/07/26 08:52:26;215947.00;0.72;373.37;0.00;0.00;0.62;;;;;24.50;72.50;;;;;;2264010;61;3693;-69
2021/07/26 08:54:54;38842.00;0.13;67.88;0.00;0.00;0.62;;;;;24.50;72.40;;;;;;2262678;61;3159;-70
2021/07/26 08:57:20;225714.00;0.75;390.18;0.00;0.00;0.62;;;;;24.50;72.20;;;;;;2259843;61;4148;-68
2021/07/26 08:59:46;42549.00;0.14;74.30;0.00;0.00;0.62;;;;;24.60;72.00;;;;;;2260550;61;2748;-68
2021/07/26 09:02:12;71387.00;0.24;124.16;0.00;0.00;0.62;;;;;24.60;71.80;;;;;;2265042;61;3905;-66
2021/07/26 09:04:38;127484.00;0.42;220.99;0.00;0.00;0.62;;;;;24.60;71.80;;;;;;2264574;61;4051;-69
2021/07/26 09:07:07;158963.00;0.53;275.25;0.00;0.00;0.62;;;;;24.60;71.80;;;;;;2264313;61;2074;-70
2021/07/26 09:09:43;115845.00;0.39;200.91;0.00;0.00;0.62;;;;;24.60;71.80;;;;;;2263466;61;2797;-67
2021/07/26 09:12:10;36761.00;0.12;64.28;0.00;0.00;0.62;;;;;24.60;71.80;;;;;;2262863;61;2841;-72
2021/07/26 09:14:37;44786.00;0.15;78.17;0.00;0.00;0.62;;;;;24.60;71.80;;;;;;2267105;61;3990;-70
2021/07/26 09:17:03;150870.00;0.50;261.31;0.00;0.00;0.62;;;;;24.70;71.60;;;;;;2264876;61;4207;-68
2021/07/26 09:19:30;101229.00;0.34;175.69;0.00;0.00;0.62;;;;;24.70;71.30;;;;;;2264433;61;2623;-68
2021/07/26 09:21:56;217059.00;0.72;375.28;0.00;0.00;0.62;;;;;24.70;71.70;;;;;;2261482;61;2005;-69
2021/07/26 09:24:26;59756.00;0.20;104.05;0.00;0.00;0.62;;;;;24.80;71.60;;;;;;2262953;61;3592;-68
2021/07/26 09:26:52;60611.00;0.20;105.53;0.00;0.00;0.62;;;;;24.80;71.50;;;;;;2257606;61;5375;-68
2021/07/26 09:29:29;137922.00;0.46;238.99;0.00;0.00;0.62;;;;;24.80;71.10;;;;;;2260347;61;7895;-69
2021/07/26 09:31:58;96134.00;0.32;166.90;0.00;0.00;0.62;;;;;24.90;71.20;;;;;;2259646;61;5623;-69
2021/07/26 09:34:24;119197.00;0.40;206.70;0.00;0.00;0.62;;;;;24.90;71.20;;;;;;2258918;61;5623;-70
2021/07/26 09:36:49;268678.00;0.90;464.07;0.00;0.00;0.62;;;;;24.90;70.90;;;;;;2257675;61;5572;-71
2021/07/26 09:39:30;212572.00;0.71;367.56;0.00;0.00;0.62;;;;;24.90;71.10;;;;;;2262177;61;5549;-70
2021/07/26 09:41:58;131031288.00;436.77;91156736.00;0.00;0.00;0.62;;;;;25.00;70.80;;;;;;2257698;61;7237;-68
2021/07/26 09:44:25;163276.00;0.54;282.68;0.00;0.00;0.62;;;;;25.00;70.50;;;;;;2255785;61;5558;-69
2021/07/26 09:46:53;170578.00;0.57;295.26;0.00;0.00;0.62;;;;;25.00;70.50;;;;;;2261383;61;5430;-67
2021/07/26 09:49:19;53866.00;0.18;93.87;0.00;0.00;0.62;;;;;25.10;70.30;;;;;;2258266;61;5971;-74
2021/07/26 09:52:05;223502.00;0.75;386.37;0.00;0.00;0.62;;;;;25.20;70.00;;;;;;2263425;61;5497;-68
2021/07/26 09:54:40;188528.00;0.63;326.17;0.00;0.00;0.62;;;;;25.20;69.90;;;;;;2260255;61;5556;-68
2021/07/26 09:57:19;60308.00;0.20;105.01;0.00;0.00;0.62;;;;;25.30;69.60;;;;;;2261558;61;5599;-69
2021/07/26 09:59:48;58803.00;0.20;102.41;0.00;0.00;0.62;;;;;25.40;69.00;;;;;;2259180;61;5558;-65
2021/07/26 10:02:15;36452.00;0.12;63.75;0.00;0.00;0.62;;;;;25.40;69.00;;;;;;2259488;61;6490;-66
2021/07/26 10:04:44;102231.00;0.34;177.42;0.00;0.00;0.62;;;;;25.50;68.90;;;;;;2262944;61;3982;-66